createdAt,value
2019-05-20T00:01:52.866Z,9.55
2019-05-20T00:04:25.679Z,9.08
2019-05-20T00:06:56.880Z,10.10
2019-05-20T00:09:28.065Z,9.00
2019-05-20T00:11:59.384Z,10.00
2019-05-20T00:14:33.703Z,10.15
2019-05-20T00:17:04.661Z,10.15
2019-05-20T00:19:35.831Z,9.30
2019-05-20T00:22:07.651Z,10.45
2019-05-20T00:24:40.446Z,9.38
2019-05-20T00:27:11.919Z,11.00
2019-05-20T00:29:43.387Z,10.10
2019-05-20T00:32:14.606Z,9.30
2019-05-20T00:34:47.192Z,8.30
2019-05-20T00:37:18.193Z,8.65
2019-05-20T00:39:49.168Z,9.95
2019-05-20T00:42:20.608Z,9.58
2019-05-20T00:44:53.124Z,9.15
2019-05-20T00:47:24.618Z,8.73
2019-05-20T00:49:56.343Z,9.15
2019-05-20T00:52:28.421Z,10.08
2019-05-20T00:55:00.695Z,9.88
2019-05-20T00:57:32.287Z,10.35
2019-05-20T01:00:04.347Z,9.95
2019-05-20T01:02:36.456Z,9.95
2019-05-20T01:05:08.408Z,11.75
2019-05-20T01:07:39.882Z,10.15
2019-05-20T01:10:12.755Z,9.13
2019-05-20T01:12:43.821Z,9.45
2019-05-20T01:15:20.165Z,9.85
2019-05-20T01:17:51.370Z,9.58
2019-05-20T01:20:22.457Z,9.48
2019-05-20T01:22:53.922Z,10.08
2019-05-20T01:25:25.254Z,10.68
2019-05-20T01:27:56.281Z,10.50
2019-05-20T01:30:27.449Z,10.70
2019-05-20T01:33:12.829Z,12.00
2019-05-20T01:35:32.353Z,9.70
2019-05-20T01:38:03.978Z,10.15
2019-05-20T01:40:35.618Z,10.88
2019-05-20T01:43:06.876Z,10.58
2019-05-20T01:45:38.234Z,10.72
2019-05-20T01:48:09.907Z,11.50
2019-05-20T01:50:42.438Z,9.73
2019-05-20T01:53:13.569Z,10.45
2019-05-20T01:55:45.110Z,10.00
2019-05-20T01:58:17.181Z,11.18
2019-05-20T02:00:48.010Z,11.33
2019-05-20T02:03:31.012Z,11.78
2019-05-20T02:05:55.033Z,11.97
2019-05-20T02:08:26.420Z,11.43
2019-05-20T02:10:57.393Z,11.05
2019-05-20T02:13:30.157Z,10.80
2019-05-20T02:16:02.934Z,10.58
2019-05-20T02:18:33.933Z,10.72
2019-05-20T02:21:05.244Z,10.45
2019-05-20T02:23:36.476Z,11.22
2019-05-20T02:26:07.664Z,11.40
2019-05-20T02:28:38.843Z,10.65
2019-05-20T02:31:09.783Z,11.20
2019-05-20T02:33:51.852Z,11.63
2019-05-20T02:36:14.227Z,13.38
2019-05-20T02:38:45.029Z,14.33
2019-05-20T02:41:16.022Z,10.80
2019-05-20T02:43:47.983Z,11.75
2019-05-20T02:46:18.818Z,11.18
2019-05-20T02:48:49.761Z,12.28
2019-05-20T02:51:22.060Z,12.93
2019-05-20T02:53:54.400Z,11.48
2019-05-20T02:56:25.303Z,12.75
2019-05-20T02:58:56.276Z,12.15
2019-05-20T03:01:27.243Z,12.45
2019-05-20T03:04:10.583Z,11.68
2019-05-20T03:06:32.335Z,10.98
2019-05-20T03:09:05.084Z,13.15
2019-05-20T03:11:37.260Z,12.33
2019-05-20T03:14:08.738Z,14.28
2019-05-20T03:16:39.571Z,13.50
2019-05-20T03:19:11.967Z,12.60
2019-05-20T03:21:42.907Z,12.05
2019-05-20T03:24:14.907Z,12.68
2019-05-20T03:26:45.981Z,12.05
2019-05-20T03:29:20.233Z,12.78
2019-05-20T03:31:51.266Z,12.23
2019-05-20T03:34:43.329Z,11.90
2019-05-20T03:36:54.551Z,13.43
2019-05-20T03:39:27.045Z,12.50
2019-05-20T03:41:57.909Z,11.90
2019-05-20T03:44:28.800Z,12.05
2019-05-20T03:46:59.766Z,13.68
2019-05-20T03:49:32.441Z,11.00
2019-05-20T03:52:04.350Z,12.50
2019-05-20T03:54:35.238Z,13.05
2019-05-20T03:57:06.423Z,13.15
2019-05-20T03:59:37.200Z,11.95
2019-05-20T04:02:08.126Z,14.68
2019-05-20T04:04:39.092Z,12.07
2019-05-20T04:07:09.947Z,14.28
2019-05-20T04:09:42.037Z,14.10
2019-05-20T04:12:13.031Z,12.10
2019-05-20T04:14:43.971Z,11.30
2019-05-20T04:17:14.907Z,12.60
2019-05-20T04:19:47.021Z,14.03
2019-05-20T04:22:17.776Z,13.65
2019-05-20T04:24:48.844Z,13.03
2019-05-20T04:27:19.753Z,13.28
2019-05-20T04:29:51.953Z,13.22
2019-05-20T04:32:22.691Z,11.50
2019-05-20T04:34:53.602Z,12.28
2019-05-20T04:37:24.721Z,13.70
2019-05-20T04:39:58.571Z,12.63
2019-05-20T04:42:29.510Z,11.33
2019-05-20T04:45:01.598Z,10.93
2019-05-20T04:47:33.030Z,11.60
2019-05-20T04:50:07.054Z,12.58
2019-05-20T04:52:38.011Z,12.68
2019-05-20T04:55:09.231Z,11.88
2019-05-20T04:57:40.008Z,13.00
2019-05-20T05:00:12.261Z,11.08
2019-05-20T05:02:43.785Z,12.23
2019-05-20T05:05:15.218Z,12.05
2019-05-20T05:07:46.055Z,11.85
2019-05-20T05:10:17.096Z,11.83
2019-05-20T05:12:47.803Z,12.13
2019-05-20T05:15:19.714Z,12.10
2019-05-20T05:17:50.439Z,11.50
2019-05-20T05:20:23.791Z,11.60
2019-05-20T05:22:54.656Z,10.30
2019-05-20T05:25:25.634Z,11.68
2019-05-20T05:27:56.734Z,11.03
2019-05-20T05:30:28.631Z,10.88
2019-05-20T05:32:59.566Z,11.78
2019-05-20T05:35:30.299Z,10.43
2019-05-20T05:38:01.769Z,10.40
2019-05-20T05:40:33.400Z,10.88
2019-05-20T05:43:04.171Z,9.40
2019-05-20T05:45:36.469Z,10.72
2019-05-20T05:48:07.189Z,11.08
2019-05-20T05:50:39.354Z,11.33
2019-05-20T05:53:10.385Z,11.20
2019-05-20T05:55:41.350Z,10.25
2019-05-20T05:58:12.289Z,10.10
2019-05-20T06:00:43.300Z,11.00
2019-05-20T06:03:14.065Z,10.43
2019-05-20T06:05:45.022Z,9.75
2019-05-20T06:08:15.716Z,9.83
2019-05-20T06:10:46.672Z,10.45
2019-05-20T06:13:17.526Z,10.48
2019-05-20T06:15:48.514Z,10.55
2019-05-20T06:18:19.995Z,9.98
2019-05-20T06:20:50.776Z,10.43
2019-05-20T06:23:21.635Z,11.73
2019-05-20T06:25:52.604Z,10.70
2019-05-20T06:28:23.440Z,11.22
2019-05-20T06:30:54.379Z,9.80
2019-05-20T06:33:25.261Z,10.10
2019-05-20T06:35:56.574Z,9.73
2019-05-20T06:38:35.652Z,10.13
2019-05-20T06:41:08.959Z,9.60
2019-05-20T06:43:39.964Z,9.60
2019-05-20T06:46:11.073Z,9.38
2019-05-20T06:48:41.908Z,9.68
2019-05-20T06:51:12.837Z,9.28
2019-05-20T06:53:44.906Z,8.83
2019-05-20T06:56:17.086Z,8.33
2019-05-20T06:58:47.914Z,8.13
2019-05-20T07:01:18.768Z,8.85
2019-05-20T07:03:49.688Z,8.50
2019-05-20T07:06:21.611Z,8.73
2019-05-20T07:08:52.354Z,8.25
2019-05-20T07:11:23.213Z,8.85
2019-05-20T07:13:53.960Z,8.50
2019-05-20T07:16:26.419Z,7.62
2019-05-20T07:18:58.045Z,8.03
2019-05-20T07:21:28.911Z,7.45
2019-05-20T07:23:59.787Z,8.00
2019-05-20T07:26:30.562Z,8.15
2019-05-20T07:29:01.520Z,7.45
2019-05-20T07:31:32.377Z,7.53
2019-05-20T07:34:03.421Z,7.92
2019-05-20T07:36:34.227Z,7.97
2019-05-20T07:39:06.674Z,7.72
2019-05-20T07:41:41.191Z,7.17
2019-05-20T07:44:10.014Z,7.20
2019-05-20T07:46:42.148Z,9.63
2019-05-20T07:49:13.207Z,9.60
2019-05-20T07:51:46.655Z,9.30
2019-05-20T07:54:19.278Z,9.33
2019-05-20T07:56:54.845Z,9.40
2019-05-20T07:59:28.239Z,8.30
2019-05-20T08:01:59.471Z,8.88
2019-05-20T08:04:30.497Z,8.75
2019-05-20T08:07:26.195Z,9.35
2019-05-20T08:09:41.057Z,8.90
2019-05-20T08:12:07.915Z,9.23
2019-05-20T08:14:38.885Z,8.00
2019-05-20T08:17:09.819Z,7.92
2019-05-20T08:19:40.995Z,7.92
2019-05-20T08:22:12.532Z,7.85
2019-05-20T08:24:43.810Z,7.65
2019-05-20T08:27:14.677Z,7.75
2019-05-20T08:29:45.640Z,8.35
2019-05-20T08:32:16.647Z,7.72
2019-05-20T08:34:47.529Z,7.65
2019-05-20T08:37:18.452Z,8.18
2019-05-20T08:39:50.292Z,7.30
2019-05-20T08:42:21.275Z,7.10
2019-05-20T08:44:52.058Z,6.60
2019-05-20T08:47:23.023Z,7.35
2019-05-20T08:49:54.119Z,7.30
2019-05-20T08:52:25.172Z,6.85
2019-05-20T08:54:56.144Z,7.08
2019-05-20T08:57:27.004Z,7.15
2019-05-20T08:59:59.351Z,7.35
2019-05-20T09:02:30.264Z,6.62
2019-05-20T09:05:01.092Z,6.70
2019-05-20T09:07:31.890Z,7.12
2019-05-20T09:10:04.422Z,7.05
2019-05-20T09:12:35.302Z,8.68
2019-05-20T09:15:07.701Z,7.22
2019-05-20T09:17:39.340Z,7.50
2019-05-20T09:20:11.267Z,9.20
2019-05-20T09:22:42.299Z,8.28
2019-05-20T09:25:14.039Z,8.95
2019-05-20T09:27:45.301Z,7.70
2019-05-20T09:30:16.429Z,8.78
2019-05-20T09:32:47.687Z,7.60
2019-05-20T09:35:20.160Z,8.15
2019-05-20T09:37:51.019Z,8.00
2019-05-20T09:40:31.561Z,8.88
2019-05-20T09:43:02.503Z,8.08
2019-05-20T09:45:33.195Z,7.87
2019-05-20T09:48:04.091Z,6.83
2019-05-20T09:50:36.521Z,6.40
2019-05-20T09:53:07.782Z,6.12
2019-05-20T09:55:38.838Z,4.90
2019-05-20T09:58:10.077Z,4.67
2019-05-20T10:00:41.071Z,4.33
2019-05-20T10:03:13.560Z,4.20
2019-05-20T10:05:46.371Z,4.53
2019-05-20T10:08:17.309Z,3.40
2019-05-20T10:10:48.262Z,4.00
2019-05-20T10:13:19.100Z,3.35
2019-05-20T10:15:49.930Z,3.60
2019-05-20T10:18:36.015Z,3.40
2019-05-20T10:20:53.330Z,4.22
2019-05-20T10:23:24.162Z,3.35
2019-05-20T10:25:55.033Z,3.77
2019-05-20T10:28:27.337Z,3.90
2019-05-20T10:30:59.211Z,3.65
2019-05-20T10:33:30.068Z,3.27
2019-05-20T10:36:00.877Z,3.55
2019-05-20T10:38:32.652Z,3.35
2019-05-20T10:41:04.008Z,3.65
2019-05-20T10:43:36.002Z,3.35
2019-05-20T10:46:07.320Z,3.27
2019-05-20T10:48:38.359Z,3.55
2019-05-20T10:51:10.435Z,2.90
2019-05-20T10:53:43.027Z,3.40
2019-05-20T10:56:15.510Z,3.27
2019-05-20T10:58:47.771Z,3.22
2019-05-20T11:01:19.408Z,3.02
2019-05-20T11:03:52.380Z,3.30
2019-05-20T11:06:24.786Z,3.27
2019-05-20T11:08:55.902Z,2.98
2019-05-20T11:11:28.843Z,2.98
2019-05-20T11:14:00.003Z,2.47
2019-05-20T11:16:32.330Z,2.60
2019-05-20T11:19:03.751Z,2.72
2019-05-20T11:21:35.295Z,2.55
2019-05-20T11:24:06.828Z,2.67
2019-05-20T11:26:38.095Z,3.30
2019-05-20T11:29:09.643Z,2.55
2019-05-20T11:31:43.139Z,2.30
2019-05-20T11:34:14.987Z,3.33
2019-05-20T11:36:48.168Z,3.20
2019-05-20T11:39:32.631Z,3.05
2019-05-20T11:41:54.646Z,2.80
2019-05-20T11:44:27.041Z,2.55
2019-05-20T11:46:59.783Z,2.47
2019-05-20T11:49:31.100Z,2.42
2019-05-20T11:52:02.336Z,2.80
2019-05-20T11:54:35.078Z,2.62
2019-05-20T11:57:07.847Z,2.40
2019-05-20T11:59:39.336Z,2.95
2019-05-20T12:02:10.776Z,3.10
2019-05-20T12:04:42.129Z,3.08
2019-05-20T12:07:13.169Z,2.87
2019-05-20T12:09:49.739Z,2.77
2019-05-20T12:12:16.991Z,3.15
2019-05-20T12:14:48.175Z,3.00
2019-05-20T12:17:19.353Z,3.45
2019-05-20T12:19:52.042Z,3.27
2019-05-20T12:22:23.408Z,2.95
2019-05-20T12:24:54.383Z,3.25
2019-05-20T12:27:25.557Z,3.58
2019-05-20T12:29:56.710Z,3.15
2019-05-20T12:32:29.075Z,3.20
2019-05-20T12:35:00.006Z,3.12
2019-05-20T12:37:31.406Z,3.45
2019-05-20T12:40:07.394Z,3.58
2019-05-20T12:42:35.500Z,3.67
2019-05-20T12:45:08.773Z,3.15
2019-05-20T12:47:40.490Z,3.50
2019-05-20T12:50:11.797Z,3.50
2019-05-20T12:52:45.076Z,3.47
2019-05-20T12:55:16.419Z,3.60
2019-05-20T12:57:47.638Z,3.52
2019-05-20T13:00:19.479Z,4.08
2019-05-20T13:02:50.708Z,4.30
2019-05-20T13:05:22.043Z,3.83
2019-05-20T13:07:53.400Z,3.92
2019-05-20T13:10:29.707Z,3.47
2019-05-20T13:12:57.742Z,3.22
2019-05-20T13:15:28.928Z,3.25
2019-05-20T13:18:00.123Z,3.95
2019-05-20T13:20:31.781Z,4.08
2019-05-20T13:23:04.491Z,4.00
2019-05-20T13:25:36.101Z,4.20
2019-05-20T13:28:07.251Z,3.67
2019-05-20T13:30:39.720Z,3.87
2019-05-20T13:33:11.076Z,4.17
2019-05-20T13:35:42.335Z,3.72
2019-05-20T13:38:13.478Z,3.80
2019-05-20T13:40:47.321Z,3.85
2019-05-20T13:43:19.054Z,3.77
2019-05-20T13:45:50.336Z,4.15
2019-05-20T13:48:21.515Z,4.47
2019-05-20T13:50:53.888Z,3.67
2019-05-20T13:53:25.133Z,4.08
2019-05-20T13:55:56.228Z,4.10
2019-05-20T13:58:27.342Z,3.85
2019-05-20T14:00:58.405Z,3.98
2019-05-20T14:03:29.495Z,4.33
2019-05-20T14:06:00.712Z,3.92
2019-05-20T14:08:33.191Z,4.35
2019-05-20T14:11:05.058Z,5.17
2019-05-20T14:13:36.333Z,4.67
2019-05-20T14:16:07.658Z,4.80
2019-05-20T14:18:40.345Z,4.50
2019-05-20T14:21:13.285Z,4.78
2019-05-20T14:23:44.581Z,4.25
2019-05-20T14:26:16.269Z,5.00
2019-05-20T14:28:49.900Z,4.55
2019-05-20T14:31:21.081Z,4.90
2019-05-20T14:33:52.224Z,4.65
2019-05-20T14:36:38.423Z,4.72
2019-05-20T14:38:56.945Z,5.80
2019-05-20T14:41:27.732Z,5.12
2019-05-20T14:43:58.657Z,5.47
2019-05-20T14:46:29.535Z,5.72
2019-05-20T14:49:02.565Z,5.22
2019-05-20T14:51:33.895Z,6.05
2019-05-20T14:54:04.649Z,5.40
2019-05-20T14:56:35.648Z,5.72
2019-05-20T14:59:06.385Z,5.90
2019-05-20T15:01:37.278Z,5.85
2019-05-20T15:04:08.200Z,6.17
2019-05-20T15:06:40.643Z,6.28
2019-05-20T15:09:11.492Z,7.55
2019-05-20T15:11:42.745Z,7.12
2019-05-20T15:14:14.109Z,6.83
2019-05-20T15:16:46.842Z,7.10
2019-05-20T15:19:19.967Z,7.45
2019-05-20T15:21:51.335Z,8.00
2019-05-20T15:24:22.453Z,9.03
2019-05-20T15:26:55.150Z,8.30
2019-05-20T15:29:28.339Z,9.33
2019-05-20T15:31:59.876Z,9.05
2019-05-20T15:34:30.915Z,8.80
2019-05-20T15:37:02.108Z,8.25
2019-05-20T15:39:33.302Z,10.72
2019-05-20T15:42:06.108Z,10.60
2019-05-20T15:44:37.369Z,8.85
2019-05-20T15:47:09.876Z,8.33
2019-05-20T15:49:40.823Z,7.92
2019-05-20T15:52:13.307Z,7.35
2019-05-20T15:54:47.351Z,7.28
2019-05-20T15:57:20.431Z,10.03
2019-05-20T15:59:52.435Z,8.38
2019-05-20T16:02:24.648Z,8.60
2019-05-20T16:04:58.350Z,8.28
2019-05-20T16:07:30.179Z,8.60
2019-05-20T16:10:01.638Z,0.10
2019-05-20T16:12:34.486Z,0.05
2019-05-20T16:15:09.909Z,0.15
2019-05-20T16:17:43.077Z,0.00
2019-05-20T16:20:14.116Z,0.00
2019-05-20T16:22:46.920Z,0.00
2019-05-20T16:25:19.008Z,0.03
2019-05-20T16:27:50.627Z,0.00
2019-05-20T16:30:23.145Z,0.00
2019-05-20T16:32:54.509Z,0.00
2019-05-20T16:35:25.766Z,0.00
2019-05-20T16:37:58.676Z,0.00
2019-05-20T16:40:29.948Z,0.00
2019-05-20T16:43:01.453Z,0.00
2019-05-20T16:45:32.824Z,0.00
2019-05-20T16:48:05.052Z,0.00
2019-05-20T16:50:36.940Z,0.00
2019-05-20T16:53:07.806Z,0.00
2019-05-20T16:55:38.764Z,0.00
2019-05-20T16:58:11.496Z,0.00
2019-05-20T17:00:43.829Z,0.00
2019-05-20T17:03:14.805Z,0.00
2019-05-20T17:05:46.124Z,0.00
2019-05-20T17:08:18.523Z,0.00
2019-05-20T17:10:49.994Z,0.00
2019-05-20T17:13:21.323Z,0.00
2019-05-20T17:15:55.630Z,0.00
2019-05-20T17:18:29.148Z,0.00
2019-05-20T17:21:01.362Z,0.00
2019-05-20T17:23:33.717Z,0.00
2019-05-20T17:26:05.838Z,0.00
2019-05-20T17:28:40.368Z,0.00
2019-05-20T17:31:12.599Z,0.00
2019-05-20T17:33:46.958Z,0.00
2019-05-20T17:36:19.476Z,0.00
2019-05-20T17:38:51.105Z,0.00
2019-05-20T17:41:23.303Z,0.08
2019-05-20T17:43:55.852Z,0.05
2019-05-20T17:46:28.572Z,0.00
2019-05-20T17:49:02.503Z,0.00
2019-05-20T17:51:34.804Z,0.00
2019-05-20T17:54:07.961Z,0.00
2019-05-20T17:56:39.792Z,0.00
2019-05-20T17:59:17.950Z,0.10
2019-05-20T18:01:52.743Z,0.20
2019-05-20T18:04:25.289Z,0.00
2019-05-20T18:06:59.191Z,0.28
2019-05-20T18:09:35.476Z,0.00
2019-05-20T18:12:12.984Z,0.00
2019-05-20T18:14:47.851Z,0.00
2019-05-20T18:17:20.980Z,0.00
2019-05-20T18:19:55.138Z,0.00
2019-05-20T18:22:26.971Z,0.00
2019-05-20T18:24:59.486Z,0.20
2019-05-20T18:27:32.000Z,0.00
2019-05-20T18:30:09.042Z,0.00
2019-05-20T18:32:41.737Z,0.00
2019-05-20T18:35:14.234Z,0.00
2019-05-20T18:37:46.738Z,0.17
2019-05-20T18:40:22.391Z,0.05
2019-05-20T18:42:54.725Z,0.00
2019-05-20T18:45:27.361Z,0.00
2019-05-20T18:48:01.582Z,0.00
2019-05-20T18:50:37.280Z,0.00
2019-05-20T18:53:10.966Z,0.00
2019-05-20T18:55:44.120Z,0.00
2019-05-20T18:58:15.639Z,0.10
2019-05-20T19:00:47.377Z,0.10
2019-05-20T19:03:20.470Z,0.40
2019-05-20T19:05:53.193Z,0.00
2019-05-20T19:08:26.160Z,0.00
2019-05-20T19:11:00.154Z,0.00
2019-05-20T19:13:33.062Z,0.00
2019-05-20T19:16:06.982Z,0.00
2019-05-20T19:18:38.643Z,0.20
2019-05-20T19:21:13.454Z,0.00
2019-05-20T19:23:44.805Z,0.00
2019-05-20T19:26:24.589Z,0.00
2019-05-20T19:28:48.933Z,0.00
2019-05-20T19:31:22.198Z,0.00
2019-05-20T19:33:54.251Z,0.00
2019-05-20T19:36:25.638Z,0.00
2019-05-20T19:38:58.156Z,0.13
2019-05-20T19:41:30.488Z,0.00
2019-05-20T19:44:02.030Z,0.00
2019-05-20T19:46:34.608Z,0.00
2019-05-20T19:49:05.891Z,0.00
2019-05-20T19:51:38.313Z,0.00
2019-05-20T19:54:09.758Z,0.00
2019-05-20T19:56:41.071Z,0.00
2019-05-20T19:59:12.960Z,0.00
2019-05-20T20:01:45.591Z,0.00
2019-05-20T20:04:17.314Z,0.00
2019-05-20T20:06:48.633Z,0.00
2019-05-20T20:09:19.925Z,0.00
2019-05-20T20:11:55.119Z,0.00
2019-05-20T20:14:26.679Z,0.00
2019-05-20T20:16:57.849Z,0.00
2019-05-20T20:19:29.422Z,0.00
2019-05-20T20:22:02.441Z,0.00
2019-05-20T20:24:33.430Z,0.00
2019-05-20T20:27:05.154Z,0.00
2019-05-20T20:29:36.682Z,0.00
2019-05-20T20:32:12.833Z,0.00
2019-05-20T20:34:45.577Z,0.00
2019-05-20T20:37:19.016Z,0.00
2019-05-20T20:39:52.873Z,0.00
2019-05-20T20:42:29.663Z,0.00
2019-05-20T20:45:01.569Z,0.00
2019-05-20T20:47:41.619Z,0.00
2019-05-20T20:50:07.106Z,0.00
2019-05-20T20:52:40.057Z,0.00
2019-05-20T20:55:11.302Z,0.00
2019-05-20T20:57:43.010Z,0.00
2019-05-20T21:00:15.444Z,0.00
2019-05-20T21:02:53.704Z,0.00
2019-05-20T21:05:23.946Z,0.00
2019-05-20T21:07:55.082Z,0.00
2019-05-20T21:10:26.488Z,0.00
2019-05-20T21:13:01.196Z,0.00
2019-05-20T21:15:34.891Z,0.00
2019-05-20T21:18:06.238Z,0.00
2019-05-20T21:20:38.331Z,0.00
2019-05-20T21:23:09.577Z,0.00
2019-05-20T21:25:40.722Z,0.00
2019-05-20T21:28:12.328Z,0.00
2019-05-20T21:30:43.385Z,0.00
2019-05-20T21:33:16.675Z,0.00
2019-05-20T21:35:47.851Z,0.00
2019-05-20T21:38:19.317Z,0.00
2019-05-20T21:40:50.518Z,0.00
2019-05-20T21:43:21.886Z,0.00
2019-05-20T21:45:54.931Z,0.00
2019-05-20T21:48:27.559Z,0.00
2019-05-20T21:50:58.731Z,0.00
2019-05-20T21:53:29.590Z,0.00
2019-05-20T21:56:01.078Z,0.00
2019-05-20T21:58:32.281Z,0.00
2019-05-20T22:01:03.411Z,0.00
2019-05-20T22:03:34.795Z,0.00
2019-05-20T22:06:07.617Z,0.13
2019-05-20T22:08:39.056Z,0.00
2019-05-20T22:11:10.375Z,0.10
2019-05-20T22:13:41.544Z,0.00
2019-05-20T22:16:12.800Z,0.00
2019-05-20T22:18:44.006Z,0.20
2019-05-20T22:21:16.755Z,0.00
2019-05-20T22:23:53.065Z,0.90
2019-05-20T22:26:24.191Z,0.00
2019-05-20T22:28:55.434Z,0.00
2019-05-20T22:31:27.193Z,0.00
2019-05-20T22:33:59.461Z,0.00
2019-05-20T22:36:31.528Z,0.10
2019-05-20T22:39:04.617Z,0.00
2019-05-20T22:41:35.657Z,0.00
2019-05-20T22:44:07.874Z,0.00
2019-05-20T22:46:38.967Z,0.00
2019-05-20T22:49:10.109Z,0.00
2019-05-20T22:51:41.271Z,0.00
2019-05-20T22:54:12.431Z,0.00
2019-05-20T22:56:43.535Z,0.00
2019-05-20T22:59:16.212Z,0.00
2019-05-20T23:01:48.191Z,0.00
2019-05-20T23:04:21.579Z,0.00
2019-05-20T23:06:52.858Z,0.00
2019-05-20T23:09:23.756Z,0.00
2019-05-20T23:11:54.970Z,0.00
2019-05-20T23:14:27.347Z,0.00
2019-05-20T23:16:58.618Z,0.00
2019-05-20T23:19:29.861Z,0.00
2019-05-20T23:22:01.697Z,0.00
2019-05-20T23:24:32.540Z,0.00
2019-05-20T23:27:03.629Z,0.00
2019-05-20T23:29:34.662Z,0.00
2019-05-20T23:32:05.477Z,0.00
2019-05-20T23:34:36.413Z,0.00
2019-05-20T23:37:07.162Z,0.00
2019-05-20T23:39:38.085Z,0.00
2019-05-20T23:42:09.019Z,0.00
2019-05-20T23:44:40.955Z,0.00
2019-05-20T23:47:11.713Z,0.00
2019-05-20T23:49:42.961Z,0.00
2019-05-20T23:52:13.772Z,0.00
2019-05-20T23:54:46.094Z,0.00
2019-05-20T23:57:16.966Z,0.00
2019-05-20T23:59:47.759Z,0.00
